createdAt,value
2022-12-19T00:00:14.979Z,81.65
2022-12-19T00:02:42.722Z,81.31
2022-12-19T00:05:11.413Z,81.25
2022-12-19T00:07:39.538Z,81.38
2022-12-19T00:10:07.694Z,81.55
2022-12-19T00:12:35.117Z,81.24
2022-12-19T00:15:02.663Z,80.68
2022-12-19T00:17:30.296Z,80.48
2022-12-19T00:19:58.042Z,80.28
2022-12-19T00:22:25.710Z,80.74
2022-12-19T00:24:52.979Z,80.92
2022-12-19T00:27:20.589Z,80.58
2022-12-19T00:29:48.531Z,80.57
2022-12-19T00:32:16.691Z,80.45
2022-12-19T00:34:44.240Z,81.02
2022-12-19T00:37:12.231Z,80.65
2022-12-19T00:39:39.993Z,80.03
2022-12-19T00:42:07.464Z,79.79
2022-12-19T00:44:34.745Z,80.63
2022-12-19T00:47:02.591Z,80.40
2022-12-19T00:49:31.159Z,80.62
2022-12-19T00:52:00.043Z,80.48
2022-12-19T00:54:27.408Z,80.02
2022-12-19T00:56:55.587Z,80.20
2022-12-19T00:59:26.862Z,80.89
2022-12-19T01:01:57.864Z,81.16
2022-12-19T01:04:28.905Z,81.83
2022-12-19T01:07:01.864Z,81.01
2022-12-19T01:09:34.625Z,81.32
2022-12-19T01:12:24.341Z,81.82
2022-12-19T01:15:04.858Z,81.02
2022-12-19T01:17:43.807Z,81.54
2022-12-19T01:20:22.224Z,82.24
2022-12-19T01:23:00.234Z,82.57
2022-12-19T01:25:28.945Z,82.34
2022-12-19T01:27:57.372Z,82.17
2022-12-19T01:30:25.007Z,82.12
2022-12-19T01:32:53.700Z,82.12
2022-12-19T01:35:22.233Z,81.63
2022-12-19T01:37:51.326Z,81.16
2022-12-19T01:40:19.908Z,80.39
2022-12-19T01:42:49.182Z,80.21
2022-12-19T01:45:17.352Z,80.33
2022-12-19T01:48:10.615Z,80.45
2022-12-19T01:50:42.965Z,79.85
2022-12-19T01:53:48.942Z,80.06
2022-12-19T01:56:24.907Z,79.90
2022-12-19T01:58:56.120Z,80.06
2022-12-19T02:01:50.919Z,80.08
2022-12-19T02:04:25.545Z,80.09
2022-12-19T02:06:55.361Z,79.27
2022-12-19T02:09:25.188Z,78.79
2022-12-19T02:11:53.822Z,78.39
2022-12-19T02:14:21.782Z,78.68
2022-12-19T02:16:52.716Z,78.72
2022-12-19T02:19:52.536Z,78.82
2022-12-19T02:22:34.595Z,79.23
2022-12-19T02:25:05.262Z,79.38
2022-12-19T02:28:01.852Z,79.26
2022-12-19T02:30:36.087Z,79.66
2022-12-19T02:33:08.690Z,80.11
2022-12-19T02:35:41.247Z,79.88
2022-12-19T02:38:28.676Z,79.47
2022-12-19T02:41:01.577Z,79.97
2022-12-19T02:43:31.491Z,80.85
2022-12-19T02:45:59.892Z,80.56
2022-12-19T02:48:27.780Z,80.81
2022-12-19T02:50:55.355Z,81.06
2022-12-19T02:53:23.931Z,82.08
2022-12-19T02:56:21.426Z,81.88
2022-12-19T02:59:23.647Z,81.25
2022-12-19T03:02:04.302Z,81.11
2022-12-19T03:04:47.771Z,81.70
2022-12-19T03:07:37.678Z,81.18
2022-12-19T03:10:15.108Z,81.66
2022-12-19T03:13:00.816Z,81.49
2022-12-19T03:15:28.710Z,81.46
2022-12-19T03:17:58.221Z,81.98
2022-12-19T03:20:28.800Z,81.62
2022-12-19T03:22:56.133Z,81.78
2022-12-19T03:25:24.358Z,81.29
2022-12-19T03:27:53.300Z,81.71
2022-12-19T03:30:21.086Z,82.23
2022-12-19T03:32:48.846Z,82.15
2022-12-19T03:35:20.843Z,81.92
2022-12-19T03:37:50.478Z,82.02
2022-12-19T03:40:20.368Z,82.25
2022-12-19T03:43:06.472Z,82.38
2022-12-19T03:45:40.169Z,82.52
2022-12-19T03:48:11.258Z,82.41
2022-12-19T03:50:50.859Z,82.05
2022-12-19T03:53:30.663Z,82.18
2022-12-19T03:56:30.135Z,81.96
2022-12-19T03:59:08.921Z,81.62
2022-12-19T04:01:36.832Z,81.44
2022-12-19T04:04:05.094Z,81.54
2022-12-19T04:06:33.768Z,80.72
2022-12-19T04:09:01.452Z,80.79
2022-12-19T04:11:34.069Z,81.01
2022-12-19T04:14:04.655Z,81.33
2022-12-19T04:17:10.504Z,81.15
2022-12-19T04:19:44.086Z,81.59
2022-12-19T04:23:04.170Z,81.17
2022-12-19T04:25:35.651Z,81.01
2022-12-19T04:28:06.066Z,81.16
2022-12-19T04:30:36.825Z,81.23
2022-12-19T04:33:04.598Z,81.11
2022-12-19T04:35:32.686Z,81.11
2022-12-19T04:38:00.416Z,81.21
2022-12-19T04:40:28.393Z,81.13
2022-12-19T04:42:55.872Z,80.96
2022-12-19T04:45:23.378Z,81.86
2022-12-19T04:47:51.152Z,81.08
2022-12-19T04:50:18.937Z,80.93
2022-12-19T04:52:46.523Z,80.35
2022-12-19T04:55:13.940Z,80.58
2022-12-19T04:57:41.392Z,81.35
2022-12-19T05:00:09.782Z,80.83
2022-12-19T05:02:38.418Z,80.87
2022-12-19T05:05:06.148Z,80.96
2022-12-19T05:07:33.637Z,80.63
2022-12-19T05:10:01.787Z,80.90
2022-12-19T05:12:29.731Z,80.50
2022-12-19T05:14:57.056Z,80.34
2022-12-19T05:17:24.530Z,81.26
2022-12-19T05:19:52.098Z,80.96
2022-12-19T05:22:19.644Z,80.30
2022-12-19T05:24:47.122Z,80.67
2022-12-19T05:27:15.717Z,80.62
2022-12-19T05:29:43.325Z,80.87
2022-12-19T05:32:10.769Z,81.27
2022-12-19T05:34:38.175Z,81.11
2022-12-19T05:37:05.582Z,80.84
2022-12-19T05:39:32.976Z,81.03
2022-12-19T05:42:00.850Z,80.57
2022-12-19T05:44:28.469Z,80.84
2022-12-19T05:46:55.814Z,80.73
2022-12-19T05:49:23.164Z,80.67
2022-12-19T05:51:52.319Z,80.89
2022-12-19T05:54:19.902Z,81.48
2022-12-19T05:56:47.215Z,81.19
2022-12-19T05:59:14.555Z,80.76
2022-12-19T06:01:42.633Z,81.66
2022-12-19T06:04:10.382Z,81.59
2022-12-19T06:06:38.149Z,81.50
2022-12-19T06:09:05.521Z,81.24
2022-12-19T06:11:33.156Z,81.11
2022-12-19T06:14:00.933Z,81.69
2022-12-19T06:16:28.657Z,81.14
2022-12-19T06:18:56.082Z,81.10
2022-12-19T06:21:23.730Z,80.54
2022-12-19T06:23:51.741Z,80.33
2022-12-19T06:26:20.784Z,79.71
2022-12-19T06:28:49.408Z,80.50
2022-12-19T06:31:19.180Z,80.62
2022-12-19T06:33:46.826Z,80.79
2022-12-19T06:36:20.216Z,80.87
2022-12-19T06:38:48.966Z,80.48
2022-12-19T06:41:35.945Z,80.51
2022-12-19T06:44:06.319Z,81.15
2022-12-19T06:46:34.556Z,81.13
2022-12-19T06:49:02.214Z,81.22
2022-12-19T06:51:30.230Z,81.34
2022-12-19T06:53:57.677Z,80.76
2022-12-19T06:56:25.378Z,80.77
2022-12-19T06:58:53.077Z,80.94
2022-12-19T07:01:34.889Z,81.44
2022-12-19T07:04:02.400Z,81.47
2022-12-19T07:06:29.981Z,81.75
2022-12-19T07:08:57.840Z,81.82
2022-12-19T07:11:25.513Z,81.06
2022-12-19T07:13:52.852Z,81.65
2022-12-19T07:16:20.752Z,81.51
2022-12-19T07:18:49.571Z,81.20
2022-12-19T07:21:17.189Z,80.46
2022-12-19T07:23:44.947Z,80.67
2022-12-19T07:26:12.861Z,80.86
2022-12-19T07:28:40.767Z,81.25
2022-12-19T07:31:08.553Z,81.39
2022-12-19T07:33:35.859Z,79.71
2022-12-19T07:36:03.228Z,79.27
2022-12-19T07:38:30.747Z,78.39
2022-12-19T07:41:01.690Z,77.64
2022-12-19T07:43:29.268Z,77.08
2022-12-19T07:45:56.934Z,77.88
2022-12-19T07:48:24.534Z,78.23
2022-12-19T07:50:52.055Z,78.72
2022-12-19T07:53:19.643Z,79.30
2022-12-19T07:55:50.803Z,79.79
2022-12-19T07:58:18.436Z,80.41
2022-12-19T08:00:45.962Z,80.30
2022-12-19T08:03:13.424Z,79.59
2022-12-19T08:05:40.948Z,79.51
2022-12-19T08:08:08.897Z,80.20
2022-12-19T08:10:36.542Z,80.87
2022-12-19T08:13:03.812Z,80.47
2022-12-19T08:15:31.401Z,80.36
2022-12-19T08:17:59.179Z,79.76
2022-12-19T08:20:26.737Z,79.31
2022-12-19T08:22:54.459Z,79.53
2022-12-19T08:25:21.696Z,79.50
2022-12-19T08:27:49.166Z,80.13
2022-12-19T08:30:16.768Z,79.80
2022-12-19T08:32:45.399Z,79.69
2022-12-19T08:35:12.832Z,79.12
2022-12-19T08:37:40.171Z,79.05
2022-12-19T08:40:08.653Z,78.50
2022-12-19T08:42:36.241Z,78.43
2022-12-19T08:45:04.949Z,78.41
2022-12-19T08:47:35.979Z,77.90
2022-12-19T08:50:04.561Z,77.54
2022-12-19T08:52:31.863Z,76.34
2022-12-19T08:54:59.381Z,77.29
2022-12-19T08:57:26.938Z,77.73
2022-12-19T08:59:54.482Z,78.11
2022-12-19T09:02:24.273Z,77.62
2022-12-19T09:06:00.270Z,76.55
2022-12-19T09:07:41.158Z,75.76
2022-12-19T09:10:08.714Z,75.62
2022-12-19T09:12:36.050Z,76.20
2022-12-19T09:15:03.899Z,75.74
2022-12-19T09:17:31.753Z,76.33
2022-12-19T09:19:59.141Z,76.70
2022-12-19T09:22:27.771Z,76.31
2022-12-19T09:24:59.641Z,75.33
2022-12-19T09:27:27.203Z,75.56
2022-12-19T09:29:54.465Z,75.96
2022-12-19T09:32:22.069Z,74.67
2022-12-19T09:34:49.912Z,74.30
2022-12-19T09:37:19.055Z,74.01
2022-12-19T09:39:47.015Z,73.21
2022-12-19T09:42:50.598Z,73.44
2022-12-19T09:45:31.650Z,73.35
2022-12-19T09:48:02.565Z,72.27
2022-12-19T09:50:45.792Z,72.45
2022-12-19T09:53:21.628Z,72.56
2022-12-19T09:55:52.638Z,72.71
2022-12-19T09:58:36.815Z,72.70
2022-12-19T10:01:21.433Z,73.44
2022-12-19T10:04:00.541Z,73.46
2022-12-19T10:07:12.467Z,73.38
2022-12-19T10:11:21.812Z,73.31
2022-12-19T10:12:44.610Z,73.54
2022-12-19T10:15:35.772Z,72.90
2022-12-19T10:18:33.242Z,72.35
2022-12-19T10:21:11.860Z,72.18
2022-12-19T10:23:50.171Z,72.02
2022-12-19T10:26:37.502Z,72.94
2022-12-19T10:29:35.691Z,72.28
2022-12-19T10:32:13.293Z,71.95
2022-12-19T10:34:43.353Z,71.90
2022-12-19T10:37:26.783Z,72.19
2022-12-19T10:40:04.802Z,72.48
2022-12-19T10:42:45.858Z,72.64
2022-12-19T10:45:19.634Z,72.83
2022-12-19T10:47:48.666Z,72.96
2022-12-19T10:50:25.902Z,72.34
2022-12-19T10:52:56.957Z,72.32
2022-12-19T10:55:37.051Z,71.71
2022-12-19T10:58:25.020Z,71.37
2022-12-19T11:01:00.358Z,70.89
2022-12-19T11:03:28.260Z,71.10
2022-12-19T11:05:58.545Z,71.30
2022-12-19T11:08:33.663Z,70.86
2022-12-19T11:13:24.753Z,70.45
2022-12-19T11:17:11.760Z,70.69
2022-12-19T11:23:16.737Z,70.58
2022-12-19T11:29:19.132Z,70.37
2022-12-19T11:29:41.073Z,70.50
2022-12-19T11:29:45.691Z,70.65
2022-12-19T11:30:45.728Z,70.22
2022-12-19T11:34:19.079Z,69.91
2022-12-19T11:37:05.099Z,69.62
2022-12-19T11:39:39.321Z,69.72
2022-12-19T11:42:30.650Z,69.24
2022-12-19T11:45:11.812Z,69.37
2022-12-19T11:47:45.427Z,69.01
2022-12-19T11:50:18.960Z,69.40
2022-12-19T11:53:16.673Z,69.16
2022-12-19T11:55:56.403Z,69.50
2022-12-19T11:58:25.330Z,69.03
2022-12-19T12:01:05.587Z,68.92
2022-12-19T12:03:40.191Z,68.98
2022-12-19T12:06:13.769Z,68.81
2022-12-19T12:12:10.424Z,68.55
2022-12-19T12:19:13.728Z,70.37
2022-12-19T12:21:44.148Z,69.55
2022-12-19T12:29:49.688Z,71.38
2022-12-19T12:31:12.421Z,67.89
2022-12-19T12:31:18.281Z,66.98
2022-12-19T12:31:46.439Z,67.07
2022-12-19T12:31:57.406Z,66.67
2022-12-19T12:35:45.389Z,66.35
2022-12-19T12:38:00.446Z,67.04
2022-12-19T12:38:36.067Z,66.09
2022-12-19T12:41:10.642Z,66.41
2022-12-19T12:44:02.552Z,66.35
2022-12-19T12:46:37.331Z,66.20
2022-12-19T12:49:07.262Z,66.74
2022-12-19T12:51:37.047Z,67.09
2022-12-19T12:54:11.123Z,66.83
2022-12-19T12:56:39.209Z,67.49
2022-12-19T12:59:22.741Z,67.15
2022-12-19T13:02:21.410Z,67.11
2022-12-19T13:05:00.163Z,66.96
2022-12-19T13:07:42.043Z,67.00
2022-12-19T13:10:16.677Z,67.28
2022-12-19T13:13:02.856Z,67.52
2022-12-19T13:15:32.104Z,66.74
2022-12-19T13:18:09.425Z,67.20
2022-12-19T13:20:45.284Z,67.05
2022-12-19T13:23:32.124Z,67.17
2022-12-19T13:25:59.587Z,67.79
2022-12-19T13:28:26.829Z,68.44
2022-12-19T13:31:20.550Z,67.65
2022-12-19T13:33:55.145Z,67.61
2022-12-19T13:39:49.008Z,66.88
2022-12-19T13:40:11.013Z,67.35
2022-12-19T13:43:10.435Z,67.69
2022-12-19T13:45:40.996Z,67.86
2022-12-19T13:48:16.138Z,68.32
2022-12-19T13:50:44.430Z,68.25
2022-12-19T13:53:16.363Z,68.31
2022-12-19T13:55:43.998Z,68.58
2022-12-19T13:58:29.736Z,68.48
2022-12-19T14:01:01.426Z,69.07
2022-12-19T14:03:38.600Z,68.86
2022-12-19T14:06:19.621Z,67.59
2022-12-19T14:09:46.247Z,67.75
2022-12-19T14:13:44.343Z,68.18
2022-12-19T14:14:47.345Z,67.92
2022-12-19T14:17:18.575Z,68.36
2022-12-19T14:19:48.620Z,68.42
2022-12-19T14:22:25.441Z,68.37
2022-12-19T14:25:49.292Z,68.84
2022-12-19T14:28:23.323Z,69.18
2022-12-19T14:30:56.483Z,69.02
2022-12-19T14:33:44.324Z,69.20
2022-12-19T14:36:25.709Z,68.95
2022-12-19T14:39:22.152Z,68.94
2022-12-19T14:42:02.740Z,69.01
2022-12-19T14:53:52.527Z,69.03
2022-12-19T14:54:16.485Z,68.79
2022-12-19T14:54:16.868Z,68.49
2022-12-19T14:54:35.864Z,68.79
2022-12-19T14:56:31.073Z,69.05
2022-12-19T14:59:00.616Z,69.46
2022-12-19T15:01:30.819Z,69.14
2022-12-19T15:04:49.127Z,68.91
2022-12-19T15:07:08.732Z,68.06
2022-12-19T15:11:03.401Z,68.41
2022-12-19T15:14:04.097Z,68.24
2022-12-19T15:15:47.911Z,68.66
2022-12-19T15:18:19.919Z,68.68
2022-12-19T15:20:47.287Z,69.04
2022-12-19T15:23:21.544Z,69.24
2022-12-19T15:26:07.398Z,69.58
2022-12-19T15:28:43.098Z,69.23
2022-12-19T15:31:27.808Z,69.42
2022-12-19T15:36:42.688Z,69.12
2022-12-19T15:39:09.958Z,69.24
2022-12-19T15:41:37.277Z,69.02
2022-12-19T15:44:20.898Z,69.01
2022-12-19T15:46:49.484Z,68.77
2022-12-19T15:49:19.102Z,69.08
2022-12-19T15:51:47.152Z,68.74
2022-12-19T15:54:47.272Z,69.13
2022-12-19T15:57:02.144Z,68.98
2022-12-19T15:59:37.699Z,69.08
2022-12-19T16:02:16.529Z,69.82
2022-12-19T16:04:44.892Z,69.52
2022-12-19T16:07:19.620Z,69.56
2022-12-19T16:09:48.101Z,69.52
2022-12-19T16:12:22.079Z,69.09
2022-12-19T16:14:55.277Z,69.38
2022-12-19T16:17:23.988Z,69.08
2022-12-19T16:19:51.884Z,69.49
2022-12-19T16:22:22.436Z,69.13
2022-12-19T16:24:51.056Z,68.74
2022-12-19T16:27:24.486Z,69.01
2022-12-19T16:29:52.166Z,68.98
2022-12-19T16:32:20.295Z,68.98
2022-12-19T16:34:47.553Z,68.95
2022-12-19T16:37:15.429Z,68.65
2022-12-19T16:39:42.710Z,68.53
2022-12-19T16:42:17.576Z,68.00
2022-12-19T16:44:48.293Z,67.74
2022-12-19T16:47:17.723Z,67.76
2022-12-19T16:49:45.325Z,68.52
2022-12-19T16:52:12.760Z,69.10
2022-12-19T16:54:40.406Z,69.22
2022-12-19T16:57:18.719Z,69.02
2022-12-19T16:59:46.388Z,69.31
2022-12-19T17:02:29.132Z,69.30
2022-12-19T17:04:56.736Z,69.11
2022-12-19T17:07:24.037Z,68.89
2022-12-19T17:09:51.468Z,69.02
2022-12-19T17:12:19.082Z,68.92
2022-12-19T17:14:46.480Z,69.21
2022-12-19T17:17:15.500Z,69.62
2022-12-19T17:19:45.129Z,69.49
2022-12-19T17:22:14.163Z,69.22
2022-12-19T17:24:42.144Z,69.25
2022-12-19T17:27:09.630Z,69.18
2022-12-19T17:29:36.956Z,69.10
2022-12-19T17:32:06.794Z,69.12
2022-12-19T17:34:34.977Z,69.37
2022-12-19T17:37:04.559Z,69.14
2022-12-19T17:39:33.105Z,68.79
2022-12-19T17:42:24.259Z,69.09
2022-12-19T17:44:51.953Z,68.80
2022-12-19T17:47:20.868Z,68.71
2022-12-19T17:49:48.903Z,68.94
2022-12-19T17:52:18.118Z,68.93
2022-12-19T17:54:45.694Z,68.75
2022-12-19T17:57:17.584Z,68.53
2022-12-19T17:59:46.792Z,68.54
2022-12-19T18:02:21.676Z,68.14
2022-12-19T18:04:50.077Z,67.77
2022-12-19T18:07:19.209Z,68.08
2022-12-19T18:09:46.756Z,68.23
2022-12-19T18:12:14.352Z,68.03
2022-12-19T18:14:41.816Z,67.78
2022-12-19T18:17:12.357Z,67.78
2022-12-19T18:19:40.086Z,67.91
2022-12-19T18:22:14.112Z,67.53
2022-12-19T18:24:42.055Z,67.43
2022-12-19T18:27:09.444Z,67.48
2022-12-19T18:29:37.106Z,66.99
2022-12-19T18:32:04.628Z,66.69
2022-12-19T18:34:33.636Z,67.10
2022-12-19T18:37:02.215Z,67.23
2022-12-19T18:39:30.758Z,67.11
2022-12-19T18:41:58.045Z,67.55
2022-12-19T18:44:25.369Z,67.29
2022-12-19T18:46:53.039Z,67.44
2022-12-19T18:49:20.792Z,67.54
2022-12-19T18:51:48.358Z,67.14
2022-12-19T18:54:18.937Z,66.85
2022-12-19T18:56:47.085Z,66.55
2022-12-19T18:59:14.748Z,67.03
2022-12-19T19:01:46.938Z,66.57
2022-12-19T19:04:17.779Z,66.74
2022-12-19T19:06:50.967Z,66.72
2022-12-19T19:09:20.472Z,66.18
2022-12-19T19:12:06.517Z,65.90
2022-12-19T19:14:33.958Z,66.04
2022-12-19T19:17:01.587Z,65.74
2022-12-19T19:19:29.087Z,65.71
2022-12-19T19:21:56.281Z,65.08
2022-12-19T19:24:24.049Z,65.35
2022-12-19T19:26:51.304Z,65.63
2022-12-19T19:29:19.790Z,65.90
2022-12-19T19:31:49.847Z,65.29
2022-12-19T19:34:25.117Z,64.96
2022-12-19T19:36:56.047Z,64.50
2022-12-19T19:39:23.922Z,64.61
2022-12-19T19:41:51.330Z,64.28
2022-12-19T19:44:18.694Z,64.17
2022-12-19T19:46:46.228Z,64.26
2022-12-19T19:49:13.629Z,63.76
2022-12-19T19:51:41.023Z,63.21
2022-12-19T19:54:08.349Z,63.39
2022-12-19T19:56:35.673Z,63.49
2022-12-19T19:59:03.120Z,63.15
2022-12-19T20:01:30.589Z,63.02
2022-12-19T20:03:57.942Z,62.43
2022-12-19T20:06:25.611Z,62.29
2022-12-19T20:08:53.007Z,62.42
2022-12-19T20:11:20.808Z,62.52
2022-12-19T20:13:48.152Z,62.41
2022-12-19T20:16:18.106Z,62.92
2022-12-19T20:18:52.123Z,62.83
2022-12-19T20:21:20.230Z,62.69
2022-12-19T20:23:47.570Z,62.46
2022-12-19T20:26:16.781Z,62.58
2022-12-19T20:28:49.288Z,62.68
2022-12-19T20:31:22.562Z,62.62
2022-12-19T20:33:53.182Z,62.52
2022-12-19T20:36:20.632Z,63.42
2022-12-19T20:38:48.550Z,62.66
2022-12-19T20:41:16.583Z,62.91
2022-12-19T20:43:44.872Z,62.32
2022-12-19T20:46:18.138Z,62.85
2022-12-19T20:48:46.732Z,63.03
2022-12-19T20:51:15.523Z,62.69
2022-12-19T20:53:44.970Z,63.15
2022-12-19T20:56:15.589Z,63.51
2022-12-19T20:58:43.052Z,63.43
2022-12-19T21:01:15.986Z,63.48
2022-12-19T21:03:45.630Z,63.09
2022-12-19T21:06:18.368Z,63.27
2022-12-19T21:08:46.128Z,63.62
2022-12-19T21:11:15.385Z,63.80
2022-12-19T21:13:43.058Z,63.55
2022-12-19T21:16:17.457Z,63.31
2022-12-19T21:18:46.646Z,63.45
2022-12-19T21:21:16.589Z,63.71
2022-12-19T21:23:45.542Z,63.99
2022-12-19T21:26:12.930Z,63.86
2022-12-19T21:28:40.379Z,63.95
2022-12-19T21:31:20.141Z,63.60
2022-12-19T21:33:47.983Z,63.27
2022-12-19T21:36:20.806Z,63.37
2022-12-19T21:38:49.937Z,63.64
2022-12-19T21:41:19.239Z,63.59
2022-12-19T21:43:53.574Z,63.39
2022-12-19T21:46:27.340Z,63.06
2022-12-19T21:48:57.092Z,62.98
2022-12-19T21:51:31.896Z,63.10
2022-12-19T21:54:01.888Z,63.08
2022-12-19T21:56:40.300Z,63.18
2022-12-19T21:59:13.578Z,63.15
2022-12-19T22:01:42.735Z,62.73
2022-12-19T22:04:16.448Z,62.58
2022-12-19T22:06:44.465Z,62.84
2022-12-19T22:09:25.227Z,62.36
2022-12-19T22:11:56.277Z,62.51
2022-12-19T22:14:23.881Z,62.58
2022-12-19T22:17:02.639Z,62.78
2022-12-19T22:19:30.154Z,63.03
2022-12-19T22:21:57.670Z,62.45
2022-12-19T22:24:27.746Z,62.92
2022-12-19T22:26:57.380Z,62.79
2022-12-19T22:29:24.800Z,63.27
2022-12-19T22:31:52.472Z,63.28
2022-12-19T22:34:21.401Z,63.07
2022-12-19T22:36:49.300Z,63.21
2022-12-19T22:39:20.276Z,63.43
2022-12-19T22:41:47.763Z,63.19
2022-12-19T22:44:21.245Z,63.54
2022-12-19T22:46:49.603Z,63.90
2022-12-19T22:49:17.710Z,63.48
2022-12-19T22:51:45.424Z,63.42
2022-12-19T22:54:13.595Z,63.66
2022-12-19T22:56:41.762Z,63.73
2022-12-19T22:59:11.140Z,63.58
2022-12-19T23:01:42.442Z,63.91
2022-12-19T23:04:12.965Z,63.82
2022-12-19T23:06:42.332Z,63.95
2022-12-19T23:09:14.185Z,64.18
2022-12-19T23:11:44.157Z,64.75
2022-12-19T23:14:14.646Z,65.10
2022-12-19T23:16:44.020Z,64.72
2022-12-19T23:19:12.250Z,65.12
2022-12-19T23:21:39.524Z,65.60
2022-12-19T23:24:07.323Z,65.56
2022-12-19T23:26:37.054Z,65.87
2022-12-19T23:29:07.803Z,66.08
2022-12-19T23:31:35.384Z,66.13
2022-12-19T23:34:02.844Z,67.00
2022-12-19T23:37:08.854Z,66.71
2022-12-19T23:39:17.663Z,66.32
2022-12-19T23:41:44.952Z,66.51
2022-12-19T23:44:12.610Z,66.98
2022-12-19T23:46:41.403Z,67.44
2022-12-19T23:49:08.717Z,67.66
2022-12-19T23:51:36.239Z,67.89
2022-12-19T23:54:04.358Z,67.89
2022-12-19T23:56:33.090Z,67.67
2022-12-19T23:59:00.895Z,68.20
